Weather at Camarillo International Airport

Public forecast

Using degrees Fahrenheit for public forecast. Weather courtesy of forecast.io.

Current aviation weather report (METAR) for Camarillo International Airport

2024/05/23 01:55 (retrieved 55 minutes ago)

KCMA 230155Z 28008KT 10SM OVC020 17/11 A2994 RMK AO2 SLP145 T01670111

Closest aviation forecast (TAF) to Camarillo International Airport

Closest forecast is Los Alamitos Army Air Field, 57.8 nm (107.0 km) ESE.

2024/05/22 21:06 (retrieved 6 hours ago)

TAF KSLI 222100Z 2221/2403 VRB06KT 9999 FEW030 QNH2989INS BECMG 2305/2306 VRB06KT 9000 BR BKN017 BKN025 QNH2990INS BECMG 2323/2324 17009KT 9999 NSW SCT024 QNH2988INS TX20/2223Z TN13/2312Z